Southbridge, Virginia
Current Conditions -  °F | °C
As of 2:56 PM on Saturday 20 Dec 2014 (Local Time) from KNYG Reporting Station
Broken Clouds Broken Clouds  
Wind Chill: 36°   Ceiling: 12000
Heat Index: 36°   Visibility: 10mi
Dew Point: 21°   Wind: 0mph
Humidity: 55%   Direction: NA
Pressure: 30.29"   Gusts: NA
Location:  38.5728°N, 77.3038°W
Report Text: KNYG 201956Z AUTO 00000KT 10SM BKN120 02/M06 A3029 RMK AO2 SLP256 T00221061 $
Loading
Personal Weather Stations






























Interactive Weather Map New forecast layout! Learn more

10-Day Weather Forecast

Advertisements
Track Severe Weather on mobile